N973SE ENVA-ENGM
Flight info
| Callsign | N973SE |
|---|---|
| Flight time | 1h 14m |
| Altitude | 21000 |
| Route | UTUNA DCT TUTBI DCT BELGU |
| Aircraft | C414/L-SBDFGRY/S |
Departure
| Time | 2026-04-30 04:33 |
|---|---|
| Airport | Trondheim Airport, Værnes (ENVA) |
Arrival
| Time | 2026-04-30 05:48 |
|---|---|
| Airport | Oslo-Gardermoen International Airport (ENGM) |
| Time | Latitude | Longitude | Altitude | Speed | Heading |
|---|---|---|---|---|---|
| 2026-04-30 04:22 | 63.45197 | 10.92434 | 36 ft | 0 kts | 64° |
| 2026-04-30 04:30 | 63.45199 | 10.92442 | 36 ft | 2 kts | 55° |
| 2026-04-30 04:30 | 63.45230 | 10.92452 | 36 ft | 8 kts | 344° |
| 2026-04-30 04:31 | 63.45306 | 10.92434 | 36 ft | 14 kts | 0° |
| 2026-04-30 04:31 | 63.45425 | 10.92435 | 36 ft | 19 kts | 2° |
| 2026-04-30 04:31 | 63.45553 | 10.92421 | 37 ft | 17 kts | 354° |
| 2026-04-30 04:31 | 63.45664 | 10.92420 | 37 ft | 14 kts | 359° |
| 2026-04-30 04:32 | 63.45750 | 10.92418 | 36 ft | 6 kts | 338° |
| 2026-04-30 04:32 | 63.45759 | 10.92372 | 36 ft | 0 kts | 271° |
| 2026-04-30 04:32 | 63.45760 | 10.92158 | 35 ft | 42 kts | 271° |
| 2026-04-30 04:33 | 63.45758 | 10.91091 | 52 ft | 88 kts | 268° |
| 2026-04-30 04:33 | 63.45731 | 10.89727 | 415 ft | 83 kts | 264° |
| 2026-04-30 04:33 | 63.45681 | 10.88377 | 597 ft | 102 kts | 268° |
| 2026-04-30 04:33 | 63.45652 | 10.86558 | 818 ft | 122 kts | 270° |
| 2026-04-30 04:34 | 63.45645 | 10.84748 | 1466 ft | 112 kts | 273° |
| 2026-04-30 04:34 | 63.45822 | 10.83088 | 2027 ft | 109 kts | 277° |
| 2026-04-30 04:34 | 63.45800 | 10.81462 | 2522 ft | 103 kts | 266° |
| 2026-04-30 04:34 | 63.45625 | 10.79936 | 2923 ft | 105 kts | 243° |
| 2026-04-30 04:35 | 63.44982 | 10.79037 | 3325 ft | 121 kts | 201° |
| 2026-04-30 04:35 | 63.44098 | 10.79208 | 3710 ft | 130 kts | 181° |
| 2026-04-30 04:35 | 63.43204 | 10.79562 | 4069 ft | 131 kts | 182° |
| 2026-04-30 04:35 | 63.41989 | 10.79990 | 4548 ft | 134 kts | 183° |
| 2026-04-30 04:36 | 63.41377 | 10.80196 | 4785 ft | 135 kts | 184° |
| 2026-04-30 04:36 | 63.40442 | 10.80501 | 5139 ft | 137 kts | 184° |
| 2026-04-30 04:36 | 63.39495 | 10.80779 | 5554 ft | 137 kts | 185° |
| 2026-04-30 04:36 | 63.38544 | 10.81069 | 5944 ft | 138 kts | 185° |
| 2026-04-30 04:37 | 63.37584 | 10.81360 | 6303 ft | 140 kts | 185° |
| 2026-04-30 04:37 | 63.36613 | 10.81639 | 6648 ft | 142 kts | 186° |
| 2026-04-30 04:37 | 63.35630 | 10.81915 | 6978 ft | 143 kts | 185° |
| 2026-04-30 04:37 | 63.34635 | 10.82200 | 7311 ft | 146 kts | 184° |
| 2026-04-30 04:38 | 63.33621 | 10.82489 | 7639 ft | 148 kts | 184° |
| 2026-04-30 04:38 | 63.32592 | 10.82781 | 7983 ft | 150 kts | 183° |
| 2026-04-30 04:38 | 63.31561 | 10.83075 | 8309 ft | 153 kts | 182° |
| 2026-04-30 04:38 | 63.30499 | 10.83386 | 8634 ft | 155 kts | 182° |
| 2026-04-30 04:39 | 63.29425 | 10.83695 | 8964 ft | 156 kts | 181° |
| 2026-04-30 04:39 | 63.28334 | 10.84009 | 9282 ft | 158 kts | 181° |
| 2026-04-30 04:39 | 63.27235 | 10.84324 | 9617 ft | 160 kts | 180° |
| 2026-04-30 04:39 | 63.26123 | 10.84638 | 9936 ft | 162 kts | 180° |
| 2026-04-30 04:40 | 63.24997 | 10.84961 | 10261 ft | 164 kts | 179° |
| 2026-04-30 04:40 | 63.23860 | 10.85287 | 10557 ft | 166 kts | 179° |
| 2026-04-30 04:40 | 63.22714 | 10.85614 | 10875 ft | 167 kts | 179° |
| 2026-04-30 04:40 | 63.21554 | 10.85944 | 11177 ft | 169 kts | 179° |
| 2026-04-30 04:41 | 63.20383 | 10.86276 | 11478 ft | 170 kts | 179° |
| 2026-04-30 04:41 | 63.19203 | 10.86611 | 11786 ft | 172 kts | 179° |
| 2026-04-30 04:41 | 63.18011 | 10.86951 | 12100 ft | 173 kts | 180° |
| 2026-04-30 04:41 | 63.16808 | 10.87292 | 12417 ft | 175 kts | 179° |
| 2026-04-30 04:42 | 63.15600 | 10.87636 | 12732 ft | 176 kts | 179° |
| 2026-04-30 04:42 | 63.14373 | 10.87983 | 13031 ft | 178 kts | 179° |
| 2026-04-30 04:42 | 63.13137 | 10.88284 | 13325 ft | 178 kts | 187° |
| 2026-04-30 04:42 | 63.11969 | 10.87810 | 13633 ft | 166 kts | 214° |
| 2026-04-30 04:43 | 63.10862 | 10.86974 | 13943 ft | 171 kts | 206° |
| 2026-04-30 04:43 | 63.09696 | 10.86335 | 14266 ft | 174 kts | 205° |
| 2026-04-30 04:43 | 63.08520 | 10.85684 | 14538 ft | 175 kts | 206° |
| 2026-04-30 04:43 | 63.07337 | 10.84999 | 14820 ft | 175 kts | 206° |
| 2026-04-30 04:44 | 63.06159 | 10.84293 | 15115 ft | 176 kts | 207° |
| 2026-04-30 04:44 | 63.04977 | 10.83578 | 15400 ft | 177 kts | 206° |
| 2026-04-30 04:44 | 63.03788 | 10.82855 | 15696 ft | 177 kts | 206° |
| 2026-04-30 04:44 | 63.02595 | 10.82127 | 15979 ft | 178 kts | 206° |
| 2026-04-30 04:45 | 63.01397 | 10.81395 | 16257 ft | 179 kts | 206° |
| 2026-04-30 04:45 | 63.00194 | 10.80661 | 16547 ft | 180 kts | 206° |
| 2026-04-30 04:45 | 62.98984 | 10.79922 | 16836 ft | 181 kts | 206° |
| 2026-04-30 04:45 | 62.97783 | 10.79190 | 17114 ft | 182 kts | 206° |
| 2026-04-30 04:46 | 62.96548 | 10.78438 | 17407 ft | 182 kts | 206° |
| 2026-04-30 04:46 | 62.95327 | 10.77697 | 17693 ft | 182 kts | 206° |
| 2026-04-30 04:46 | 62.94115 | 10.76958 | 17986 ft | 184 kts | 206° |
| 2026-04-30 04:46 | 62.92875 | 10.76204 | 18330 ft | 185 kts | 205° |
| 2026-04-30 04:47 | 62.91628 | 10.75447 | 18646 ft | 187 kts | 205° |
| 2026-04-30 04:47 | 62.90372 | 10.74686 | 18925 ft | 188 kts | 205° |
| 2026-04-30 04:47 | 62.89111 | 10.73921 | 19204 ft | 189 kts | 205° |
| 2026-04-30 04:47 | 62.87842 | 10.73153 | 19484 ft | 190 kts | 205° |
| 2026-04-30 04:48 | 62.86567 | 10.72382 | 19760 ft | 190 kts | 205° |
| 2026-04-30 04:48 | 62.85284 | 10.71608 | 20047 ft | 192 kts | 205° |
| 2026-04-30 04:48 | 62.83995 | 10.70833 | 20332 ft | 193 kts | 204° |
| 2026-04-30 04:48 | 62.82649 | 10.70340 | 20615 ft | 200 kts | 190° |
| 2026-04-30 04:49 | 62.81251 | 10.70259 | 20895 ft | 202 kts | 188° |
| 2026-04-30 04:49 | 62.79848 | 10.70171 | 21165 ft | 202 kts | 188° |
| 2026-04-30 04:49 | 62.78434 | 10.70072 | 21415 ft | 205 kts | 188° |
| 2026-04-30 04:49 | 62.76950 | 10.69951 | 21450 ft | 221 kts | 188° |
| 2026-04-30 04:50 | 62.75364 | 10.69817 | 21457 ft | 234 kts | 187° |
| 2026-04-30 04:50 | 62.73697 | 10.69688 | 21456 ft | 244 kts | 187° |
| 2026-04-30 04:50 | 62.71967 | 10.69563 | 21468 ft | 252 kts | 186° |
| 2026-04-30 04:50 | 62.70197 | 10.69440 | 21463 ft | 258 kts | 186° |
| 2026-04-30 04:51 | 62.68383 | 10.69317 | 21457 ft | 262 kts | 186° |
| 2026-04-30 04:51 | 62.66553 | 10.69197 | 21457 ft | 265 kts | 186° |
| 2026-04-30 04:51 | 62.64708 | 10.69076 | 21459 ft | 266 kts | 186° |
| 2026-04-30 04:51 | 62.62840 | 10.68953 | 21459 ft | 268 kts | 186° |
| 2026-04-30 04:52 | 62.61000 | 10.68831 | 21464 ft | 269 kts | 186° |
| 2026-04-30 04:52 | 62.59100 | 10.68703 | 21464 ft | 270 kts | 186° |
| 2026-04-30 04:52 | 62.57215 | 10.68576 | 21462 ft | 271 kts | 186° |
| 2026-04-30 04:52 | 62.55331 | 10.68449 | 21463 ft | 271 kts | 186° |
| 2026-04-30 04:53 | 62.53466 | 10.68323 | 21463 ft | 272 kts | 186° |
| 2026-04-30 04:53 | 62.51574 | 10.68195 | 21464 ft | 272 kts | 186° |
| 2026-04-30 04:53 | 62.49676 | 10.68066 | 21470 ft | 272 kts | 185° |
| 2026-04-30 04:53 | 62.47775 | 10.67937 | 21469 ft | 273 kts | 185° |
| 2026-04-30 04:54 | 62.45876 | 10.67809 | 21469 ft | 273 kts | 185° |
| 2026-04-30 04:54 | 62.43977 | 10.67681 | 21473 ft | 273 kts | 185° |
| 2026-04-30 04:54 | 62.42074 | 10.67553 | 21476 ft | 273 kts | 185° |
| 2026-04-30 04:54 | 62.40172 | 10.67424 | 21475 ft | 273 kts | 185° |
| 2026-04-30 04:55 | 62.38272 | 10.67297 | 21481 ft | 274 kts | 185° |
| 2026-04-30 04:55 | 62.36366 | 10.67169 | 21479 ft | 274 kts | 185° |
| 2026-04-30 04:55 | 62.34461 | 10.67041 | 21484 ft | 274 kts | 185° |
| 2026-04-30 04:55 | 62.32553 | 10.66913 | 21482 ft | 275 kts | 185° |
| 2026-04-30 04:56 | 62.30641 | 10.66784 | 21478 ft | 275 kts | 185° |
| 2026-04-30 04:56 | 62.28729 | 10.66655 | 21474 ft | 275 kts | 185° |
| 2026-04-30 04:56 | 62.26821 | 10.66529 | 21480 ft | 274 kts | 185° |
| 2026-04-30 04:56 | 62.24909 | 10.66402 | 21479 ft | 275 kts | 185° |
| 2026-04-30 04:57 | 62.22997 | 10.66274 | 21480 ft | 275 kts | 185° |
| 2026-04-30 04:57 | 62.21082 | 10.66146 | 21477 ft | 275 kts | 185° |
| 2026-04-30 04:57 | 62.19164 | 10.66018 | 21485 ft | 276 kts | 185° |
| 2026-04-30 04:57 | 62.17237 | 10.65889 | 21483 ft | 278 kts | 184° |
| 2026-04-30 04:58 | 62.15303 | 10.65762 | 21460 ft | 277 kts | 184° |
| 2026-04-30 04:58 | 62.13381 | 10.65637 | 21466 ft | 275 kts | 184° |
| 2026-04-30 04:58 | 62.11467 | 10.65511 | 21480 ft | 275 kts | 184° |
| 2026-04-30 04:58 | 62.09551 | 10.65383 | 21475 ft | 276 kts | 184° |
| 2026-04-30 04:59 | 62.07628 | 10.65256 | 21475 ft | 276 kts | 184° |
| 2026-04-30 04:59 | 62.05705 | 10.65129 | 21479 ft | 277 kts | 184° |
| 2026-04-30 04:59 | 62.03771 | 10.65002 | 21478 ft | 278 kts | 184° |
| 2026-04-30 04:59 | 62.01838 | 10.64875 | 21472 ft | 278 kts | 184° |
| 2026-04-30 05:00 | 61.99901 | 10.64749 | 21472 ft | 278 kts | 184° |
| 2026-04-30 05:00 | 61.97964 | 10.64622 | 21469 ft | 279 kts | 184° |
| 2026-04-30 05:00 | 61.96024 | 10.64494 | 21469 ft | 279 kts | 184° |
| 2026-04-30 05:00 | 61.94081 | 10.64367 | 21473 ft | 279 kts | 184° |
| 2026-04-30 05:01 | 61.92146 | 10.64240 | 21471 ft | 279 kts | 184° |
| 2026-04-30 05:01 | 61.90203 | 10.64113 | 21466 ft | 279 kts | 184° |
| 2026-04-30 05:01 | 61.88263 | 10.63987 | 21473 ft | 279 kts | 184° |
| 2026-04-30 05:01 | 61.86326 | 10.63862 | 21471 ft | 279 kts | 184° |
| 2026-04-30 05:02 | 61.84383 | 10.63736 | 21472 ft | 279 kts | 184° |
| 2026-04-30 05:02 | 61.82439 | 10.63610 | 21469 ft | 279 kts | 184° |
| 2026-04-30 05:02 | 61.80500 | 10.63484 | 21465 ft | 279 kts | 184° |
| 2026-04-30 05:02 | 61.78562 | 10.63359 | 21475 ft | 279 kts | 184° |
| 2026-04-30 05:03 | 61.76584 | 10.63230 | 21472 ft | 280 kts | 183° |
| 2026-04-30 05:03 | 61.74634 | 10.63104 | 21462 ft | 280 kts | 183° |
| 2026-04-30 05:03 | 61.72683 | 10.62979 | 21463 ft | 281 kts | 183° |
| 2026-04-30 05:03 | 61.70733 | 10.62853 | 21467 ft | 281 kts | 183° |
| 2026-04-30 05:04 | 61.68804 | 10.62729 | 21468 ft | 281 kts | 183° |
| 2026-04-30 05:04 | 61.66825 | 10.62600 | 21463 ft | 281 kts | 183° |
| 2026-04-30 05:04 | 61.64894 | 10.62479 | 21474 ft | 280 kts | 184° |
| 2026-04-30 05:04 | 61.62940 | 10.62356 | 21464 ft | 281 kts | 183° |
| 2026-04-30 05:05 | 61.60960 | 10.62230 | 21463 ft | 282 kts | 183° |
| 2026-04-30 05:05 | 61.59000 | 10.62102 | 21462 ft | 281 kts | 183° |
| 2026-04-30 05:05 | 61.57047 | 10.61978 | 21468 ft | 281 kts | 183° |
| 2026-04-30 05:06 | 61.53147 | 10.61729 | 21456 ft | 282 kts | 183° |
| 2026-04-30 05:06 | 61.51185 | 10.61604 | 21468 ft | 283 kts | 183° |
| 2026-04-30 05:06 | 61.49210 | 10.61477 | 21357 ft | 287 kts | 183° |
| 2026-04-30 05:06 | 61.47167 | 10.61344 | 21152 ft | 293 kts | 183° |
| 2026-04-30 05:07 | 61.45118 | 10.61212 | 20948 ft | 296 kts | 183° |
| 2026-04-30 05:07 | 61.43084 | 10.61081 | 20752 ft | 298 kts | 183° |
| 2026-04-30 05:07 | 61.40997 | 10.60950 | 20549 ft | 300 kts | 183° |
| 2026-04-30 05:07 | 61.38906 | 10.60817 | 20343 ft | 300 kts | 183° |
| 2026-04-30 05:08 | 61.36822 | 10.60687 | 20146 ft | 300 kts | 183° |
| 2026-04-30 05:08 | 61.34736 | 10.60556 | 19953 ft | 300 kts | 183° |
| 2026-04-30 05:08 | 61.32647 | 10.60425 | 19750 ft | 300 kts | 183° |
| 2026-04-30 05:08 | 61.30568 | 10.60294 | 19548 ft | 299 kts | 183° |
| 2026-04-30 05:09 | 61.28488 | 10.60164 | 19364 ft | 298 kts | 183° |
| 2026-04-30 05:09 | 61.26413 | 10.60035 | 19175 ft | 298 kts | 183° |
| 2026-04-30 05:09 | 61.24341 | 10.59904 | 18980 ft | 298 kts | 183° |
| 2026-04-30 05:09 | 61.22273 | 10.59759 | 18790 ft | 297 kts | 185° |
| 2026-04-30 05:10 | 61.20229 | 10.59321 | 18582 ft | 295 kts | 192° |
| 2026-04-30 05:10 | 61.18217 | 10.58539 | 18359 ft | 293 kts | 194° |
| 2026-04-30 05:10 | 61.16213 | 10.57765 | 18136 ft | 292 kts | 193° |
| 2026-04-30 05:10 | 61.14213 | 10.57000 | 17919 ft | 291 kts | 193° |
| 2026-04-30 05:11 | 61.12224 | 10.56239 | 17709 ft | 291 kts | 193° |
| 2026-04-30 05:11 | 61.10236 | 10.55478 | 17503 ft | 291 kts | 193° |
| 2026-04-30 05:11 | 61.08891 | 10.54963 | 17352 ft | 291 kts | 193° |
| 2026-04-30 05:11 | 61.06909 | 10.54205 | 17138 ft | 290 kts | 193° |
| 2026-04-30 05:12 | 61.04923 | 10.53447 | 16932 ft | 289 kts | 193° |
| 2026-04-30 05:12 | 61.02950 | 10.52694 | 16723 ft | 288 kts | 193° |
| 2026-04-30 05:12 | 61.00981 | 10.51943 | 16508 ft | 287 kts | 193° |
| 2026-04-30 05:12 | 60.99025 | 10.51199 | 16310 ft | 286 kts | 193° |
| 2026-04-30 05:13 | 60.97060 | 10.50452 | 16107 ft | 286 kts | 193° |
| 2026-04-30 05:13 | 60.95110 | 10.49711 | 15907 ft | 285 kts | 193° |
| 2026-04-30 05:13 | 60.93182 | 10.48981 | 15705 ft | 285 kts | 193° |
| 2026-04-30 05:13 | 60.91241 | 10.48246 | 15505 ft | 284 kts | 193° |
| 2026-04-30 05:14 | 60.89269 | 10.47498 | 15297 ft | 283 kts | 193° |
| 2026-04-30 05:14 | 60.87336 | 10.46768 | 15099 ft | 282 kts | 193° |
| 2026-04-30 05:14 | 60.85408 | 10.46042 | 14909 ft | 282 kts | 193° |
| 2026-04-30 05:14 | 60.83520 | 10.45095 | 14709 ft | 275 kts | 210° |
| 2026-04-30 05:15 | 60.82147 | 10.42639 | 14516 ft | 255 kts | 247° |
| 2026-04-30 05:15 | 60.81634 | 10.39328 | 14326 ft | 239 kts | 270° |
| 2026-04-30 05:15 | 60.81390 | 10.35975 | 14117 ft | 237 kts | 272° |
| 2026-04-30 05:15 | 60.81207 | 10.32635 | 13902 ft | 236 kts | 274° |
| 2026-04-30 05:16 | 60.81052 | 10.29303 | 13691 ft | 235 kts | 274° |
| 2026-04-30 05:16 | 60.80913 | 10.25973 | 13471 ft | 234 kts | 274° |
| 2026-04-30 05:16 | 60.80785 | 10.22661 | 13253 ft | 233 kts | 274° |
| 2026-04-30 05:16 | 60.80667 | 10.19366 | 13029 ft | 231 kts | 274° |
| 2026-04-30 05:17 | 60.80562 | 10.16104 | 12818 ft | 229 kts | 274° |
| 2026-04-30 05:17 | 60.80460 | 10.12853 | 12623 ft | 228 kts | 274° |
| 2026-04-30 05:17 | 60.80364 | 10.09611 | 12424 ft | 228 kts | 274° |
| 2026-04-30 05:17 | 60.80279 | 10.06362 | 12224 ft | 228 kts | 274° |
| 2026-04-30 05:18 | 60.80199 | 10.03106 | 12022 ft | 228 kts | 274° |
| 2026-04-30 05:18 | 60.80125 | 9.99862 | 11815 ft | 228 kts | 274° |
| 2026-04-30 05:18 | 60.80060 | 9.96632 | 11628 ft | 226 kts | 274° |
| 2026-04-30 05:18 | 60.80086 | 9.93474 | 11526 ft | 213 kts | 290° |
| 2026-04-30 05:19 | 60.80928 | 9.91257 | 11489 ft | 196 kts | 335° |
| 2026-04-30 05:19 | 60.82255 | 9.90906 | 11471 ft | 194 kts | 359° |
| 2026-04-30 05:19 | 60.83602 | 9.91057 | 11453 ft | 193 kts | 2° |
| 2026-04-30 05:19 | 60.84936 | 9.91309 | 11442 ft | 191 kts | 4° |
| 2026-04-30 05:20 | 60.86248 | 9.91605 | 11438 ft | 189 kts | 4° |
| 2026-04-30 05:20 | 60.87547 | 9.91917 | 11444 ft | 188 kts | 4° |
| 2026-04-30 05:20 | 60.88842 | 9.92235 | 11446 ft | 188 kts | 4° |
| 2026-04-30 05:20 | 60.90142 | 9.92561 | 11443 ft | 188 kts | 4° |
| 2026-04-30 05:21 | 60.91442 | 9.92892 | 11449 ft | 189 kts | 4° |
| 2026-04-30 05:21 | 60.92749 | 9.93224 | 11448 ft | 190 kts | 5° |
| 2026-04-30 05:21 | 60.94057 | 9.93556 | 11441 ft | 189 kts | 4° |
| 2026-04-30 05:21 | 60.95364 | 9.93890 | 11444 ft | 189 kts | 5° |
| 2026-04-30 05:22 | 60.96551 | 9.94987 | 11445 ft | 199 kts | 43° |
| 2026-04-30 05:22 | 60.96984 | 9.97758 | 11450 ft | 216 kts | 85° |
| 2026-04-30 05:22 | 60.96844 | 10.00866 | 11439 ft | 220 kts | 91° |
| 2026-04-30 05:22 | 60.96621 | 10.03978 | 11440 ft | 220 kts | 93° |
| 2026-04-30 05:23 | 60.96367 | 10.07100 | 11447 ft | 222 kts | 94° |
| 2026-04-30 05:23 | 60.96100 | 10.10229 | 11445 ft | 222 kts | 94° |
| 2026-04-30 05:23 | 60.95828 | 10.13360 | 11437 ft | 222 kts | 94° |
| 2026-04-30 05:23 | 60.95554 | 10.16491 | 11440 ft | 222 kts | 94° |
| 2026-04-30 05:24 | 60.95277 | 10.19634 | 11438 ft | 223 kts | 94° |
| 2026-04-30 05:24 | 60.95002 | 10.22769 | 11437 ft | 222 kts | 94° |
| 2026-04-30 05:24 | 60.94920 | 10.25898 | 11430 ft | 218 kts | 84° |
| 2026-04-30 05:24 | 60.94878 | 10.29021 | 11430 ft | 219 kts | 86° |
| 2026-04-30 05:25 | 60.94799 | 10.32152 | 11434 ft | 219 kts | 87° |
| 2026-04-30 05:25 | 60.94713 | 10.35289 | 11439 ft | 220 kts | 87° |
| 2026-04-30 05:25 | 60.94628 | 10.38386 | 11431 ft | 220 kts | 87° |
| 2026-04-30 05:25 | 60.94546 | 10.41536 | 11436 ft | 221 kts | 87° |
| 2026-04-30 05:26 | 60.94467 | 10.44702 | 11435 ft | 222 kts | 87° |
| 2026-04-30 05:26 | 60.94382 | 10.47862 | 11432 ft | 221 kts | 87° |
| 2026-04-30 05:26 | 60.94303 | 10.51060 | 11428 ft | 221 kts | 87° |
| 2026-04-30 05:26 | 60.94225 | 10.54222 | 11429 ft | 221 kts | 87° |
| 2026-04-30 05:27 | 60.94148 | 10.57381 | 11431 ft | 221 kts | 87° |
| 2026-04-30 05:27 | 60.94068 | 10.60529 | 11434 ft | 221 kts | 87° |
| 2026-04-30 05:27 | 60.93987 | 10.63690 | 11427 ft | 221 kts | 87° |
| 2026-04-30 05:27 | 60.93906 | 10.66855 | 11426 ft | 221 kts | 87° |
| 2026-04-30 05:28 | 60.93825 | 10.70004 | 11433 ft | 221 kts | 87° |
| 2026-04-30 05:28 | 60.93741 | 10.73160 | 11432 ft | 221 kts | 87° |
| 2026-04-30 05:28 | 60.93657 | 10.76314 | 11422 ft | 221 kts | 87° |
| 2026-04-30 05:28 | 60.93454 | 10.79423 | 11427 ft | 226 kts | 101° |
| 2026-04-30 05:29 | 60.92745 | 10.82341 | 11424 ft | 232 kts | 123° |
| 2026-04-30 05:29 | 60.91558 | 10.84605 | 11424 ft | 235 kts | 147° |
| 2026-04-30 05:29 | 60.90072 | 10.85980 | 11422 ft | 234 kts | 159° |
| 2026-04-30 05:29 | 60.88565 | 10.87244 | 11427 ft | 235 kts | 157° |
| 2026-04-30 05:30 | 60.87035 | 10.88560 | 11430 ft | 236 kts | 157° |
| 2026-04-30 05:30 | 60.85517 | 10.89857 | 11428 ft | 237 kts | 157° |
| 2026-04-30 05:30 | 60.84000 | 10.91146 | 11416 ft | 236 kts | 157° |
| 2026-04-30 05:30 | 60.82481 | 10.92427 | 11423 ft | 236 kts | 158° |
| 2026-04-30 05:31 | 60.80960 | 10.93710 | 11424 ft | 237 kts | 157° |
| 2026-04-30 05:31 | 60.79393 | 10.94688 | 11419 ft | 236 kts | 174° |
| 2026-04-30 05:31 | 60.77775 | 10.94525 | 11416 ft | 232 kts | 197° |
| 2026-04-30 05:31 | 60.76312 | 10.93266 | 11420 ft | 225 kts | 218° |
| 2026-04-30 05:32 | 60.75175 | 10.91159 | 11421 ft | 218 kts | 238° |
| 2026-04-30 05:32 | 60.74448 | 10.88508 | 11422 ft | 211 kts | 256° |
| 2026-04-30 05:32 | 60.73943 | 10.85703 | 11417 ft | 210 kts | 256° |
| 2026-04-30 05:32 | 60.73426 | 10.82901 | 11422 ft | 211 kts | 256° |
| 2026-04-30 05:33 | 60.72909 | 10.80099 | 11425 ft | 211 kts | 256° |
| 2026-04-30 05:33 | 60.72254 | 10.77363 | 11368 ft | 219 kts | 243° |
| 2026-04-30 05:33 | 60.71248 | 10.74989 | 11238 ft | 222 kts | 232° |
| 2026-04-30 05:33 | 60.70239 | 10.72625 | 11116 ft | 220 kts | 236° |
| 2026-04-30 05:34 | 60.69276 | 10.70204 | 10994 ft | 219 kts | 237° |
| 2026-04-30 05:34 | 60.68310 | 10.67801 | 10862 ft | 219 kts | 236° |
| 2026-04-30 05:34 | 60.67351 | 10.65453 | 10739 ft | 218 kts | 235° |
| 2026-04-30 05:34 | 60.66371 | 10.63110 | 10622 ft | 218 kts | 232° |
| 2026-04-30 05:35 | 60.65230 | 10.61060 | 10502 ft | 221 kts | 219° |
| 2026-04-30 05:35 | 60.63866 | 10.59486 | 10379 ft | 222 kts | 213° |
| 2026-04-30 05:35 | 60.62528 | 10.57931 | 10248 ft | 221 kts | 214° |
| 2026-04-30 05:35 | 60.61113 | 10.56691 | 10107 ft | 224 kts | 198° |
| 2026-04-30 05:36 | 60.59574 | 10.56322 | 9978 ft | 222 kts | 180° |
| 2026-04-30 05:36 | 60.58058 | 10.56837 | 9767 ft | 221 kts | 163° |
| 2026-04-30 05:36 | 60.56673 | 10.58171 | 9554 ft | 220 kts | 147° |
| 2026-04-30 05:36 | 60.55527 | 10.60202 | 9339 ft | 218 kts | 129° |
| 2026-04-30 05:37 | 60.54705 | 10.62756 | 9126 ft | 215 kts | 112° |
| 2026-04-30 05:37 | 60.54207 | 10.65591 | 8920 ft | 212 kts | 106° |
| 2026-04-30 05:37 | 60.53724 | 10.68426 | 8714 ft | 212 kts | 107° |
| 2026-04-30 05:37 | 60.53234 | 10.71245 | 8510 ft | 211 kts | 108° |
| 2026-04-30 05:38 | 60.52732 | 10.74048 | 8311 ft | 211 kts | 108° |
| 2026-04-30 05:38 | 60.52231 | 10.76848 | 8120 ft | 211 kts | 108° |
| 2026-04-30 05:38 | 60.51733 | 10.79635 | 7904 ft | 210 kts | 108° |
| 2026-04-30 05:38 | 60.51237 | 10.82413 | 7713 ft | 209 kts | 108° |
| 2026-04-30 05:39 | 60.50744 | 10.85192 | 7504 ft | 208 kts | 108° |
| 2026-04-30 05:39 | 60.50254 | 10.87955 | 7315 ft | 208 kts | 108° |
| 2026-04-30 05:39 | 60.49763 | 10.90710 | 7126 ft | 208 kts | 108° |
| 2026-04-30 05:39 | 60.49274 | 10.93472 | 6918 ft | 207 kts | 108° |
| 2026-04-30 05:40 | 60.48791 | 10.96207 | 6708 ft | 205 kts | 108° |
| 2026-04-30 05:40 | 60.48310 | 10.98928 | 6508 ft | 204 kts | 108° |
| 2026-04-30 05:40 | 60.47826 | 11.01642 | 6308 ft | 205 kts | 108° |
| 2026-04-30 05:40 | 60.47340 | 11.04351 | 6090 ft | 204 kts | 108° |
| 2026-04-30 05:41 | 60.46856 | 11.07041 | 5888 ft | 203 kts | 110° |
| 2026-04-30 05:41 | 60.46111 | 11.09445 | 5679 ft | 203 kts | 135° |
| 2026-04-30 05:41 | 60.45052 | 11.11322 | 5475 ft | 202 kts | 137° |
| 2026-04-30 05:41 | 60.44049 | 11.13307 | 5291 ft | 202 kts | 134° |
| 2026-04-30 05:42 | 60.43056 | 11.15317 | 5076 ft | 202 kts | 135° |
| 2026-04-30 05:42 | 60.42057 | 11.17308 | 4864 ft | 201 kts | 135° |
| 2026-04-30 05:42 | 60.40955 | 11.18996 | 4667 ft | 200 kts | 156° |
| 2026-04-30 05:42 | 60.39598 | 11.19469 | 4479 ft | 199 kts | 186° |
| 2026-04-30 05:43 | 60.38266 | 11.18816 | 4273 ft | 197 kts | 199° |
| 2026-04-30 05:43 | 60.36957 | 11.18037 | 4061 ft | 196 kts | 197° |
| 2026-04-30 05:43 | 60.35651 | 11.17311 | 3951 ft | 191 kts | 198° |
| 2026-04-30 05:43 | 60.34399 | 11.16586 | 3927 ft | 184 kts | 198° |
| 2026-04-30 05:44 | 60.33188 | 11.15868 | 3916 ft | 180 kts | 198° |
| 2026-04-30 05:44 | 60.31996 | 11.15173 | 3915 ft | 177 kts | 198° |
| 2026-04-30 05:44 | 60.30809 | 11.14513 | 3928 ft | 177 kts | 197° |
| 2026-04-30 05:44 | 60.29653 | 11.13828 | 3909 ft | 165 kts | 199° |
| 2026-04-30 05:45 | 60.28595 | 11.13246 | 3710 ft | 154 kts | 198° |
| 2026-04-30 05:45 | 60.27626 | 11.12626 | 3453 ft | 140 kts | 199° |
| 2026-04-30 05:45 | 60.26726 | 11.12095 | 3207 ft | 128 kts | 197° |
| 2026-04-30 05:45 | 60.25891 | 11.11642 | 2886 ft | 121 kts | 197° |
| 2026-04-30 05:46 | 60.25088 | 11.11192 | 2591 ft | 118 kts | 197° |
| 2026-04-30 05:46 | 60.24567 | 11.10891 | 2387 ft | 117 kts | 197° |
| 2026-04-30 05:46 | 60.23527 | 11.10280 | 1973 ft | 116 kts | 197° |
| 2026-04-30 05:46 | 60.23033 | 11.09992 | 1757 ft | 105 kts | 197° |
| 2026-04-30 05:47 | 60.22366 | 11.09601 | 1426 ft | 96 kts | 196° |
| 2026-04-30 05:47 | 60.21719 | 11.09246 | 1045 ft | 98 kts | 193° |
| 2026-04-30 05:47 | 60.21075 | 11.08904 | 724 ft | 93 kts | 200° |
| 2026-04-30 05:47 | 60.20545 | 11.08551 | 675 ft | 51 kts | 198° |
| 2026-04-30 05:48 | 60.20342 | 11.08448 | 674 ft | 10 kts | 211° |
| 2026-04-30 05:48 | 60.20301 | 11.08288 | 672 ft | 14 kts | 268° |
| 2026-04-30 05:48 | 60.20328 | 11.08039 | 671 ft | 20 kts | 284° |
| 2026-04-30 05:48 | 60.20341 | 11.07960 | 671 ft | 0 kts | 301° |
| 2026-04-30 05:49 | 60.20345 | 11.07948 | 671 ft | 5 kts | 314° |
| 2026-04-30 05:49 | 60.20404 | 11.07929 | 672 ft | 10 kts | 17° |
| 2026-04-30 05:49 | 60.20479 | 11.07978 | 672 ft | 13 kts | 16° |
| 2026-04-30 05:50 | 60.20518 | 11.07901 | 672 ft | 10 kts | 246° |
| 2026-04-30 05:50 | 60.20505 | 11.07794 | 672 ft | 0 kts | 285° |